METAR AND TAF INFORMATION
METAR FOR KMFR
KMFR 130753Z AUTO 34004KT 10SM OVC080 12/07 A2974 RMK AO2 SLP066 T01170072 401940072
KMFR 130653Z AUTO 34004KT 10SM CLR 12/07 A2973 RMK AO2 SLP064 T01170072
KMFR 130553Z AUTO VRB04KT 10SM FEW080 13/07 A2971 RMK AO2 SLP057 T01280072 10194 20128 51023
KMFR 130538Z 1306/1406 VRB05KT P6SM BKN070
FM132000 31006KT P6SM -RA BKN050

 AIRPORT MAP

 RUNWAY INFORMATION
Runway 09 Runway length 3136 ft Runway width 100 ft
Runway elevation 1308 ft Runway displaced threshold 0 ft Runway heading 113
Runway 27 Runway length 3136 ft Runway width 100 ft
Runway elevation 1320 ft Runway displaced threshold 0 ft Runway heading 293
Runway 14 Runway length 8800 ft Runway width 150 ft
Runway elevation 1298 ft Runway displaced threshold 0 ft Runway heading 159
Runway 32 Runway length 8800 ft Runway width 150 ft
Runway elevation 1335 ft Runway displaced threshold 0 ft Runway heading 339

 AIRPORT FREQUENCIES
Type A/D Name CASCADE AP Frequency 124.3 MHZ
Type ATIS Name ATIS Frequency 127.25 MHZ
Type CTAF Name CTAF Frequency 119.4 MHZ
Type GND Name GND Frequency 121.8 MHZ
Type RDO Name MC MINNVIL Frequency 122.65 MHZ
Type TWR Name MEDFORD TW Frequency 119.4 MHZ
Type UNIC Name UNICOM Frequency 122.95 MHZ

 AIRPORT NEAR NAVIGATION AIDS
Type NDB Name Medford Frequency 356 KHZ
Type NDB Name Pumie Frequency 373 KHZ

-